sensor_id;sensor_type;location;lat;lon;timestamp;temperature;humidity
49679;DHT22;35570;48.218;16.326;2023-06-22T00:01:00;24.60;99.90
49679;DHT22;35570;48.218;16.326;2023-06-22T00:03:26;24.60;99.90
49679;DHT22;35570;48.218;16.326;2023-06-22T00:05:52;24.60;99.90
49679;DHT22;35570;48.218;16.326;2023-06-22T00:08:19;24.60;99.60
49679;DHT22;35570;48.218;16.326;2023-06-22T00:10:45;24.50;99.90
49679;DHT22;35570;48.218;16.326;2023-06-22T00:13:12;24.50;99.90
49679;DHT22;35570;48.218;16.326;2023-06-22T00:15:40;24.50;99.90
49679;DHT22;35570;48.218;16.326;2023-06-22T00:18:07;24.50;99.60
49679;DHT22;35570;48.218;16.326;2023-06-22T00:20:33;24.40;99.90
49679;DHT22;35570;48.218;16.326;2023-06-22T00:23:02;24.50;99.90
49679;DHT22;35570;48.218;16.326;2023-06-22T00:25:31;24.40;99.80
49679;DHT22;35570;48.218;16.326;2023-06-22T00:27:57;24.40;99.90
49679;DHT22;35570;48.218;16.326;2023-06-22T00:30:23;24.40;99.90
49679;DHT22;35570;48.218;16.326;2023-06-22T00:32:48;24.40;99.70
49679;DHT22;35570;48.218;16.326;2023-06-22T00:35:14;24.40;99.60
49679;DHT22;35570;48.218;16.326;2023-06-22T00:37:40;24.40;99.90
49679;DHT22;35570;48.218;16.326;2023-06-22T00:40:09;24.40;99.90
49679;DHT22;35570;48.218;16.326;2023-06-22T00:42:38;24.30;99.90
49679;DHT22;35570;48.218;16.326;2023-06-22T00:45:05;24.30;99.90
49679;DHT22;35570;48.218;16.326;2023-06-22T00:47:31;24.30;99.90
49679;DHT22;35570;48.218;16.326;2023-06-22T00:49:58;24.30;99.90
49679;DHT22;35570;48.218;16.326;2023-06-22T00:52:24;24.20;99.90
49679;DHT22;35570;48.218;16.326;2023-06-22T00:54:55;24.20;99.90
49679;DHT22;35570;48.218;16.326;2023-06-22T00:57:22;24.20;99.60
49679;DHT22;35570;48.218;16.326;2023-06-22T00:59:53;24.20;99.90
49679;DHT22;35570;48.218;16.326;2023-06-22T01:02:19;24.20;99.90
49679;DHT22;35570;48.218;16.326;2023-06-22T01:04:45;24.20;99.90
49679;DHT22;35570;48.218;16.326;2023-06-22T01:12:32;24.20;99.60
49679;DHT22;35570;48.218;16.326;2023-06-22T01:15:14;24.20;99.90
49679;DHT22;35570;48.218;16.326;2023-06-22T01:17:43;24.10;99.90
49679;DHT22;35570;48.218;16.326;2023-06-22T01:20:10;24.10;99.30
49679;DHT22;35570;48.218;16.326;2023-06-22T01:25:28;24.00;99.90
49679;DHT22;35570;48.218;16.326;2023-06-22T01:28:05;24.00;99.90
49679;DHT22;35570;48.218;16.326;2023-06-22T01:30:41;24.00;99.80
49679;DHT22;35570;48.218;16.326;2023-06-22T01:33:12;24.00;99.90
49679;DHT22;35570;48.218;16.326;2023-06-22T01:35:38;24.00;99.80
49679;DHT22;35570;48.218;16.326;2023-06-22T01:38:04;23.90;99.90
49679;DHT22;35570;48.218;16.326;2023-06-22T01:40:31;23.90;99.90
49679;DHT22;35570;48.218;16.326;2023-06-22T01:43:00;23.90;99.90
49679;DHT22;35570;48.218;16.326;2023-06-22T01:45:27;23.90;99.90
49679;DHT22;35570;48.218;16.326;2023-06-22T01:47:53;24.00;99.90
49679;DHT22;35570;48.218;16.326;2023-06-22T01:50:20;23.90;99.90
49679;DHT22;35570;48.218;16.326;2023-06-22T01:52:46;23.90;99.90
49679;DHT22;35570;48.218;16.326;2023-06-22T01:55:12;23.90;99.90
49679;DHT22;35570;48.218;16.326;2023-06-22T01:57:37;23.90;99.90
49679;DHT22;35570;48.218;16.326;2023-06-22T02:00:17;23.90;99.90
49679;DHT22;35570;48.218;16.326;2023-06-22T02:02:59;23.80;99.90
49679;DHT22;35570;48.218;16.326;2023-06-22T02:05:28;23.80;99.90
49679;DHT22;35570;48.218;16.326;2023-06-22T02:08:15;23.90;99.90
49679;DHT22;35570;48.218;16.326;2023-06-22T02:10:44;23.80;99.90
49679;DHT22;35570;48.218;16.326;2023-06-22T02:13:11;23.80;99.90
49679;DHT22;35570;48.218;16.326;2023-06-22T02:15:38;23.70;99.90
49679;DHT22;35570;48.218;16.326;2023-06-22T02:18:04;23.60;99.90
49679;DHT22;35570;48.218;16.326;2023-06-22T02:20:30;23.60;99.90
49679;DHT22;35570;48.218;16.326;2023-06-22T02:22:56;23.70;99.90
49679;DHT22;35570;48.218;16.326;2023-06-22T02:25:22;23.60;99.90
49679;DHT22;35570;48.218;16.326;2023-06-22T02:27:47;23.60;99.90
49679;DHT22;35570;48.218;16.326;2023-06-22T02:30:14;23.60;99.90
49679;DHT22;35570;48.218;16.326;2023-06-22T02:32:41;23.60;99.90
49679;DHT22;35570;48.218;16.326;2023-06-22T02:35:08;23.60;99.90
49679;DHT22;35570;48.218;16.326;2023-06-22T02:37:38;23.50;99.90
49679;DHT22;35570;48.218;16.326;2023-06-22T02:40:08;23.50;99.90
49679;DHT22;35570;48.218;16.326;2023-06-22T02:42:37;23.50;99.90
49679;DHT22;35570;48.218;16.326;2023-06-22T02:45:03;23.50;99.90
49679;DHT22;35570;48.218;16.326;2023-06-22T02:47:29;23.40;99.90
49679;DHT22;35570;48.218;16.326;2023-06-22T02:49:54;23.40;99.90
49679;DHT22;35570;48.218;16.326;2023-06-22T02:52:20;23.40;99.90
49679;DHT22;35570;48.218;16.326;2023-06-22T02:54:46;23.40;99.90
49679;DHT22;35570;48.218;16.326;2023-06-22T02:57:12;23.40;99.90
49679;DHT22;35570;48.218;16.326;2023-06-22T02:59:42;23.40;99.90
49679;DHT22;35570;48.218;16.326;2023-06-22T03:02:11;23.50;99.90
49679;DHT22;35570;48.218;16.326;2023-06-22T03:04:36;23.50;99.90
49679;DHT22;35570;48.218;16.326;2023-06-22T03:07:02;23.50;99.90
49679;DHT22;35570;48.218;16.326;2023-06-22T03:09:28;23.50;99.90
49679;DHT22;35570;48.218;16.326;2023-06-22T03:11:54;23.50;99.90
49679;DHT22;35570;48.218;16.326;2023-06-22T03:14:20;23.60;99.90
49679;DHT22;35570;48.218;16.326;2023-06-22T03:16:46;23.50;99.90
49679;DHT22;35570;48.218;16.326;2023-06-22T03:19:12;23.50;99.90
49679;DHT22;35570;48.218;16.326;2023-06-22T03:21:38;23.50;99.90
49679;DHT22;35570;48.218;16.326;2023-06-22T03:24:04;23.60;99.90
49679;DHT22;35570;48.218;16.326;2023-06-22T03:26:30;23.60;99.90
49679;DHT22;35570;48.218;16.326;2023-06-22T03:28:56;23.50;99.90
49679;DHT22;35570;48.218;16.326;2023-06-22T03:31:23;23.60;99.90
49679;DHT22;35570;48.218;16.326;2023-06-22T03:33:49;23.60;99.90
49679;DHT22;35570;48.218;16.326;2023-06-22T03:36:16;23.60;99.90
49679;DHT22;35570;48.218;16.326;2023-06-22T03:38:49;23.60;99.90
49679;DHT22;35570;48.218;16.326;2023-06-22T03:41:15;23.60;99.60
49679;DHT22;35570;48.218;16.326;2023-06-22T03:43:41;23.60;99.90
49679;DHT22;35570;48.218;16.326;2023-06-22T03:46:07;23.60;99.50
49679;DHT22;35570;48.218;16.326;2023-06-22T03:48:32;23.60;99.90
49679;DHT22;35570;48.218;16.326;2023-06-22T03:51:01;23.60;99.90
49679;DHT22;35570;48.218;16.326;2023-06-22T03:53:28;23.60;99.30
49679;DHT22;35570;48.218;16.326;2023-06-22T03:55:54;23.60;99.90
49679;DHT22;35570;48.218;16.326;2023-06-22T03:58:20;23.60;99.90
49679;DHT22;35570;48.218;16.326;2023-06-22T04:00:47;23.60;99.90
49679;DHT22;35570;48.218;16.326;2023-06-22T04:03:13;23.60;99.90
49679;DHT22;35570;48.218;16.326;2023-06-22T04:05:39;23.60;99.90
49679;DHT22;35570;48.218;16.326;2023-06-22T04:08:05;23.60;99.90
49679;DHT22;35570;48.218;16.326;2023-06-22T04:10:31;23.60;99.90
49679;DHT22;35570;48.218;16.326;2023-06-22T04:12:57;23.60;99.90
49679;DHT22;35570;48.218;16.326;2023-06-22T04:15:22;23.70;99.90
49679;DHT22;35570;48.218;16.326;2023-06-22T04:17:48;23.70;99.90
49679;DHT22;35570;48.218;16.326;2023-06-22T04:20:14;23.70;99.90
49679;DHT22;35570;48.218;16.326;2023-06-22T04:22:39;23.60;99.90
49679;DHT22;35570;48.218;16.326;2023-06-22T04:25:06;23.60;99.90
49679;DHT22;35570;48.218;16.326;2023-06-22T04:27:33;23.70;99.90
49679;DHT22;35570;48.218;16.326;2023-06-22T04:30:03;23.70;99.90
49679;DHT22;35570;48.218;16.326;2023-06-22T04:32:29;23.70;99.90
49679;DHT22;35570;48.218;16.326;2023-06-22T04:34:55;23.80;99.90
49679;DHT22;35570;48.218;16.326;2023-06-22T04:37:20;23.90;99.90
49679;DHT22;35570;48.218;16.326;2023-06-22T04:39:49;23.90;99.90
49679;DHT22;35570;48.218;16.326;2023-06-22T04:42:14;23.90;99.90
49679;DHT22;35570;48.218;16.326;2023-06-22T04:44:40;24.00;99.90
49679;DHT22;35570;48.218;16.326;2023-06-22T04:47:07;24.00;99.90
49679;DHT22;35570;48.218;16.326;2023-06-22T04:49:35;24.10;99.90
49679;DHT22;35570;48.218;16.326;2023-06-22T04:52:03;24.10;99.90
49679;DHT22;35570;48.218;16.326;2023-06-22T04:54:29;24.10;99.90
49679;DHT22;35570;48.218;16.326;2023-06-22T04:56:54;24.10;99.90
49679;DHT22;35570;48.218;16.326;2023-06-22T04:59:23;24.00;99.90
49679;DHT22;35570;48.218;16.326;2023-06-22T05:01:59;24.10;99.90
49679;DHT22;35570;48.218;16.326;2023-06-22T05:04:25;24.10;99.90
49679;DHT22;35570;48.218;16.326;2023-06-22T05:06:52;24.10;99.90
49679;DHT22;35570;48.218;16.326;2023-06-22T05:09:17;24.20;99.90
49679;DHT22;35570;48.218;16.326;2023-06-22T05:11:44;24.20;99.90
49679;DHT22;35570;48.218;16.326;2023-06-22T05:14:10;24.10;99.70
49679;DHT22;35570;48.218;16.326;2023-06-22T05:16:36;24.10;99.90
49679;DHT22;35570;48.218;16.326;2023-06-22T05:19:02;24.20;99.90
49679;DHT22;35570;48.218;16.326;2023-06-22T05:21:29;24.20;99.90
49679;DHT22;35570;48.218;16.326;2023-06-22T05:23:56;24.30;99.90
49679;DHT22;35570;48.218;16.326;2023-06-22T05:26:26;24.30;99.70
49679;DHT22;35570;48.218;16.326;2023-06-22T05:28:52;24.40;99.90
49679;DHT22;35570;48.218;16.326;2023-06-22T05:31:18;24.40;99.00
49679;DHT22;35570;48.218;16.326;2023-06-22T05:33:46;24.40;99.70
49679;DHT22;35570;48.218;16.326;2023-06-22T05:36:12;24.50;98.80
49679;DHT22;35570;48.218;16.326;2023-06-22T05:38:39;24.60;98.80
49679;DHT22;35570;48.218;16.326;2023-06-22T05:41:04;24.60;98.70
49679;DHT22;35570;48.218;16.326;2023-06-22T05:43:30;24.60;98.40
49679;DHT22;35570;48.218;16.326;2023-06-22T05:45:57;24.70;98.50
49679;DHT22;35570;48.218;16.326;2023-06-22T05:48:22;24.70;98.40
49679;DHT22;35570;48.218;16.326;2023-06-22T05:50:48;24.80;97.90
49679;DHT22;35570;48.218;16.326;2023-06-22T05:53:14;24.80;98.00
49679;DHT22;35570;48.218;16.326;2023-06-22T05:55:40;24.90;98.30
49679;DHT22;35570;48.218;16.326;2023-06-22T05:58:06;24.90;97.60
49679;DHT22;35570;48.218;16.326;2023-06-22T06:00:32;24.90;97.40
49679;DHT22;35570;48.218;16.326;2023-06-22T06:02:57;24.90;97.80
49679;DHT22;35570;48.218;16.326;2023-06-22T06:05:29;25.00;97.50
49679;DHT22;35570;48.218;16.326;2023-06-22T06:07:55;25.10;97.60
49679;DHT22;35570;48.218;16.326;2023-06-22T06:10:21;25.10;97.40
49679;DHT22;35570;48.218;16.326;2023-06-22T06:12:47;25.10;97.10
49679;DHT22;35570;48.218;16.326;2023-06-22T06:15:12;25.20;97.10
49679;DHT22;35570;48.218;16.326;2023-06-22T06:17:54;25.20;97.60
49679;DHT22;35570;48.218;16.326;2023-06-22T06:20:24;25.30;97.50
49679;DHT22;35570;48.218;16.326;2023-06-22T06:22:50;25.40;97.80
49679;DHT22;35570;48.218;16.326;2023-06-22T06:25:16;25.40;97.60
49679;DHT22;35570;48.218;16.326;2023-06-22T06:27:46;25.40;97.50
49679;DHT22;35570;48.218;16.326;2023-06-22T06:30:12;25.30;97.30
49679;DHT22;35570;48.218;16.326;2023-06-22T06:32:39;25.30;96.70
49679;DHT22;35570;48.218;16.326;2023-06-22T06:35:09;25.20;96.80
49679;DHT22;35570;48.218;16.326;2023-06-22T06:37:42;25.20;97.20
49679;DHT22;35570;48.218;16.326;2023-06-22T06:40:10;25.30;97.70
49679;DHT22;35570;48.218;16.326;2023-06-22T06:42:40;25.40;98.00
49679;DHT22;35570;48.218;16.326;2023-06-22T06:45:17;25.40;97.60
49679;DHT22;35570;48.218;16.326;2023-06-22T06:47:43;25.50;97.80
49679;DHT22;35570;48.218;16.326;2023-06-22T06:50:10;25.50;98.10
49679;DHT22;35570;48.218;16.326;2023-06-22T06:52:35;25.60;97.30
49679;DHT22;35570;48.218;16.326;2023-06-22T06:55:01;25.70;97.30
49679;DHT22;35570;48.218;16.326;2023-06-22T06:57:30;25.70;97.20
49679;DHT22;35570;48.218;16.326;2023-06-22T06:59:56;25.70;97.60
49679;DHT22;35570;48.218;16.326;2023-06-22T07:02:23;25.70;97.60
49679;DHT22;35570;48.218;16.326;2023-06-22T07:04:48;25.80;98.00
49679;DHT22;35570;48.218;16.326;2023-06-22T07:07:14;25.80;98.20
49679;DHT22;35570;48.218;16.326;2023-06-22T07:09:40;25.90;98.80
49679;DHT22;35570;48.218;16.326;2023-06-22T07:12:06;26.00;98.30
49679;DHT22;35570;48.218;16.326;2023-06-22T07:14:32;26.00;98.50
49679;DHT22;35570;48.218;16.326;2023-06-22T07:16:58;26.10;96.80
49679;DHT22;35570;48.218;16.326;2023-06-22T07:19:30;26.10;96.80
49679;DHT22;35570;48.218;16.326;2023-06-22T07:21:57;26.10;97.30
49679;DHT22;35570;48.218;16.326;2023-06-22T07:24:23;26.30;99.90
49679;DHT22;35570;48.218;16.326;2023-06-22T07:26:49;26.30;98.40
49679;DHT22;35570;48.218;16.326;2023-06-22T07:29:21;26.40;97.90
49679;DHT22;35570;48.218;16.326;2023-06-22T07:31:48;26.50;97.80
49679;DHT22;35570;48.218;16.326;2023-06-22T07:34:15;26.60;97.50
49679;DHT22;35570;48.218;16.326;2023-06-22T07:36:40;26.70;97.70
49679;DHT22;35570;48.218;16.326;2023-06-22T07:39:06;26.80;97.10
49679;DHT22;35570;48.218;16.326;2023-06-22T07:41:32;26.90;96.50
49679;DHT22;35570;48.218;16.326;2023-06-22T07:43:58;26.90;97.10
49679;DHT22;35570;48.218;16.326;2023-06-22T07:46:24;27.00;95.90
49679;DHT22;35570;48.218;16.326;2023-06-22T07:48:49;27.00;96.50
49679;DHT22;35570;48.218;16.326;2023-06-22T07:51:15;27.10;96.60
49679;DHT22;35570;48.218;16.326;2023-06-22T07:53:41;27.20;96.40
49679;DHT22;35570;48.218;16.326;2023-06-22T07:56:09;27.30;97.10
49679;DHT22;35570;48.218;16.326;2023-06-22T07:58:35;27.30;96.10
49679;DHT22;35570;48.218;16.326;2023-06-22T08:01:01;27.40;96.80
49679;DHT22;35570;48.218;16.326;2023-06-22T08:03:27;27.50;95.40
49679;DHT22;35570;48.218;16.326;2023-06-22T08:05:52;27.50;94.10
49679;DHT22;35570;48.218;16.326;2023-06-22T08:08:18;27.50;95.10
49679;DHT22;35570;48.218;16.326;2023-06-22T08:10:43;27.50;95.00
49679;DHT22;35570;48.218;16.326;2023-06-22T08:13:10;27.60;94.70
49679;DHT22;35570;48.218;16.326;2023-06-22T08:15:36;27.60;94.50
49679;DHT22;35570;48.218;16.326;2023-06-22T08:18:01;27.70;94.20
49679;DHT22;35570;48.218;16.326;2023-06-22T08:20:27;27.80;93.70
49679;DHT22;35570;48.218;16.326;2023-06-22T08:22:55;27.90;94.50
49679;DHT22;35570;48.218;16.326;2023-06-22T08:25:21;28.00;94.40
49679;DHT22;35570;48.218;16.326;2023-06-22T08:27:47;28.10;94.80
49679;DHT22;35570;48.218;16.326;2023-06-22T08:30:14;28.20;93.60
49679;DHT22;35570;48.218;16.326;2023-06-22T08:32:39;28.20;91.80
49679;DHT22;35570;48.218;16.326;2023-06-22T08:35:05;28.20;91.90
49679;DHT22;35570;48.218;16.326;2023-06-22T08:37:34;28.20;92.50
49679;DHT22;35570;48.218;16.326;2023-06-22T08:40:03;28.20;92.70
49679;DHT22;35570;48.218;16.326;2023-06-22T08:42:33;28.30;93.70
49679;DHT22;35570;48.218;16.326;2023-06-22T08:44:59;28.40;92.70
49679;DHT22;35570;48.218;16.326;2023-06-22T08:47:27;28.50;92.50
49679;DHT22;35570;48.218;16.326;2023-06-22T08:49:53;28.60;92.00
49679;DHT22;35570;48.218;16.326;2023-06-22T08:52:18;28.70;90.80
49679;DHT22;35570;48.218;16.326;2023-06-22T08:54:45;28.80;90.00
49679;DHT22;35570;48.218;16.326;2023-06-22T08:57:11;28.80;87.00
49679;DHT22;35570;48.218;16.326;2023-06-22T08:59:37;28.70;86.40
49679;DHT22;35570;48.218;16.326;2023-06-22T09:02:02;28.80;90.40
49679;DHT22;35570;48.218;16.326;2023-06-22T09:04:28;28.80;90.40
49679;DHT22;35570;48.218;16.326;2023-06-22T09:06:54;29.00;91.50
49679;DHT22;35570;48.218;16.326;2023-06-22T09:09:21;29.20;91.50
49679;DHT22;35570;48.218;16.326;2023-06-22T09:11:47;29.30;88.40
49679;DHT22;35570;48.218;16.326;2023-06-22T09:14:13;29.40;88.10
49679;DHT22;35570;48.218;16.326;2023-06-22T09:16:39;29.50;86.20
49679;DHT22;35570;48.218;16.326;2023-06-22T09:19:04;29.50;83.60
49679;DHT22;35570;48.218;16.326;2023-06-22T09:21:30;29.60;87.00
49679;DHT22;35570;48.218;16.326;2023-06-22T09:23:56;29.60;87.50
49679;DHT22;35570;48.218;16.326;2023-06-22T09:26:22;29.70;85.80
49679;DHT22;35570;48.218;16.326;2023-06-22T09:28:50;29.90;84.00
49679;DHT22;35570;48.218;16.326;2023-06-22T09:31:16;30.00;85.30
49679;DHT22;35570;48.218;16.326;2023-06-22T09:33:42;30.00;83.90
49679;DHT22;35570;48.218;16.326;2023-06-22T09:36:08;30.20;77.60
49679;DHT22;35570;48.218;16.326;2023-06-22T09:38:38;30.20;81.90
49679;DHT22;35570;48.218;16.326;2023-06-22T09:41:04;30.20;80.30
49679;DHT22;35570;48.218;16.326;2023-06-22T09:43:32;30.30;77.00
49679;DHT22;35570;48.218;16.326;2023-06-22T09:45:58;30.30;76.40
49679;DHT22;35570;48.218;16.326;2023-06-22T09:48:23;30.30;79.20
49679;DHT22;35570;48.218;16.326;2023-06-22T09:50:49;30.30;78.60
49679;DHT22;35570;48.218;16.326;2023-06-22T09:53:15;30.30;79.20
49679;DHT22;35570;48.218;16.326;2023-06-22T09:55:41;30.50;81.40
49679;DHT22;35570;48.218;16.326;2023-06-22T09:58:06;30.60;79.80
49679;DHT22;35570;48.218;16.326;2023-06-22T10:00:32;30.80;76.80
49679;DHT22;35570;48.218;16.326;2023-06-22T10:02:57;30.90;76.60
49679;DHT22;35570;48.218;16.326;2023-06-22T10:05:23;31.00;78.50
49679;DHT22;35570;48.218;16.326;2023-06-22T10:07:50;31.10;76.10
49679;DHT22;35570;48.218;16.326;2023-06-22T10:10:15;31.10;73.80
49679;DHT22;35570;48.218;16.326;2023-06-22T10:12:44;31.20;75.00
49679;DHT22;35570;48.218;16.326;2023-06-22T10:15:11;31.20;75.90
49679;DHT22;35570;48.218;16.326;2023-06-22T10:17:36;31.40;75.60
49679;DHT22;35570;48.218;16.326;2023-06-22T10:20:02;31.40;75.70
49679;DHT22;35570;48.218;16.326;2023-06-22T10:22:42;31.40;75.50
49679;DHT22;35570;48.218;16.326;2023-06-22T10:25:08;31.50;71.80
49679;DHT22;35570;48.218;16.326;2023-06-22T10:27:34;31.50;76.00
49679;DHT22;35570;48.218;16.326;2023-06-22T10:30:00;31.50;76.40
49679;DHT22;35570;48.218;16.326;2023-06-22T10:32:26;31.60;73.10
49679;DHT22;35570;48.218;16.326;2023-06-22T10:34:53;31.60;71.50
49679;DHT22;35570;48.218;16.326;2023-06-22T10:37:19;31.60;70.80
49679;DHT22;35570;48.218;16.326;2023-06-22T10:39:44;31.70;72.20
49679;DHT22;35570;48.218;16.326;2023-06-22T10:42:10;31.70;73.10
49679;DHT22;35570;48.218;16.326;2023-06-22T10:44:35;31.90;68.30
49679;DHT22;35570;48.218;16.326;2023-06-22T10:47:01;31.90;71.80
49679;DHT22;35570;48.218;16.326;2023-06-22T10:49:26;32.10;70.60
49679;DHT22;35570;48.218;16.326;2023-06-22T10:51:52;32.20;70.00
49679;DHT22;35570;48.218;16.326;2023-06-22T10:54:18;32.40;72.00
49679;DHT22;35570;48.218;16.326;2023-06-22T10:56:44;32.60;70.00
49679;DHT22;35570;48.218;16.326;2023-06-22T10:59:10;32.90;69.20
49679;DHT22;35570;48.218;16.326;2023-06-22T11:01:36;33.10;68.80
49679;DHT22;35570;48.218;16.326;2023-06-22T11:04:02;33.30;66.00
49679;DHT22;35570;48.218;16.326;2023-06-22T11:06:28;33.40;66.60
49679;DHT22;35570;48.218;16.326;2023-06-22T11:08:53;33.60;64.40
49679;DHT22;35570;48.218;16.326;2023-06-22T11:11:19;33.70;63.40
49679;DHT22;35570;48.218;16.326;2023-06-22T11:13:44;33.80;64.00
49679;DHT22;35570;48.218;16.326;2023-06-22T11:16:10;33.90;62.60
49679;DHT22;35570;48.218;16.326;2023-06-22T11:18:36;33.90;63.10
49679;DHT22;35570;48.218;16.326;2023-06-22T11:21:02;33.90;60.50
49679;DHT22;35570;48.218;16.326;2023-06-22T11:23:27;33.70;61.30
49679;DHT22;35570;48.218;16.326;2023-06-22T11:25:54;33.70;63.30
49679;DHT22;35570;48.218;16.326;2023-06-22T11:28:20;33.60;61.00
49679;DHT22;35570;48.218;16.326;2023-06-22T11:30:46;33.50;61.90
49679;DHT22;35570;48.218;16.326;2023-06-22T11:33:11;33.60;60.80
49679;DHT22;35570;48.218;16.326;2023-06-22T11:35:37;33.60;61.10
49679;DHT22;35570;48.218;16.326;2023-06-22T11:38:03;33.70;62.10
49679;DHT22;35570;48.218;16.326;2023-06-22T11:40:29;33.80;63.00
49679;DHT22;35570;48.218;16.326;2023-06-22T11:42:55;34.00;62.10
49679;DHT22;35570;48.218;16.326;2023-06-22T11:45:20;34.20;61.60
49679;DHT22;35570;48.218;16.326;2023-06-22T11:47:47;34.40;60.00
49679;DHT22;35570;48.218;16.326;2023-06-22T11:50:12;34.50;59.00
49679;DHT22;35570;48.218;16.326;2023-06-22T11:52:38;34.60;57.70
49679;DHT22;35570;48.218;16.326;2023-06-22T11:55:04;34.60;57.90
49679;DHT22;35570;48.218;16.326;2023-06-22T11:57:33;34.50;57.90
49679;DHT22;35570;48.218;16.326;2023-06-22T11:59:59;34.40;55.50
49679;DHT22;35570;48.218;16.326;2023-06-22T12:02:25;34.10;58.40
49679;DHT22;35570;48.218;16.326;2023-06-22T12:04:51;33.90;57.70
49679;DHT22;35570;48.218;16.326;2023-06-22T12:07:18;33.80;56.80
49679;DHT22;35570;48.218;16.326;2023-06-22T12:09:43;33.80;58.80
49679;DHT22;35570;48.218;16.326;2023-06-22T12:12:09;34.00;59.60
49679;DHT22;35570;48.218;16.326;2023-06-22T12:14:35;34.00;59.20
49679;DHT22;35570;48.218;16.326;2023-06-22T12:17:01;34.00;59.70
49679;DHT22;35570;48.218;16.326;2023-06-22T12:19:26;34.00;58.50
49679;DHT22;35570;48.218;16.326;2023-06-22T12:21:52;34.10;58.20
49679;DHT22;35570;48.218;16.326;2023-06-22T12:24:18;34.10;57.10
49679;DHT22;35570;48.218;16.326;2023-06-22T12:26:43;34.10;59.20
49679;DHT22;35570;48.218;16.326;2023-06-22T12:29:09;34.30;55.00
49679;DHT22;35570;48.218;16.326;2023-06-22T12:31:36;34.20;57.00
49679;DHT22;35570;48.218;16.326;2023-06-22T12:34:04;34.30;57.10
49679;DHT22;35570;48.218;16.326;2023-06-22T12:36:29;34.40;58.90
49679;DHT22;35570;48.218;16.326;2023-06-22T12:38:55;34.40;57.90
49679;DHT22;35570;48.218;16.326;2023-06-22T12:41:21;34.50;57.50
49679;DHT22;35570;48.218;16.326;2023-06-22T12:43:46;34.40;55.70
49679;DHT22;35570;48.218;16.326;2023-06-22T12:46:12;34.40;57.00
49679;DHT22;35570;48.218;16.326;2023-06-22T12:48:38;34.40;57.40
49679;DHT22;35570;48.218;16.326;2023-06-22T12:51:09;34.50;57.70
49679;DHT22;35570;48.218;16.326;2023-06-22T12:53:35;34.60;56.80
49679;DHT22;35570;48.218;16.326;2023-06-22T12:56:01;34.60;56.60
49679;DHT22;35570;48.218;16.326;2023-06-22T12:58:26;34.50;55.70
49679;DHT22;35570;48.218;16.326;2023-06-22T13:00:52;34.50;57.50
49679;DHT22;35570;48.218;16.326;2023-06-22T13:03:18;34.60;56.70
49679;DHT22;35570;48.218;16.326;2023-06-22T13:05:44;34.50;57.10
49679;DHT22;35570;48.218;16.326;2023-06-22T13:08:10;34.60;56.20
49679;DHT22;35570;48.218;16.326;2023-06-22T13:10:36;34.50;56.50
49679;DHT22;35570;48.218;16.326;2023-06-22T13:13:02;34.70;56.50
49679;DHT22;35570;48.218;16.326;2023-06-22T13:15:30;34.80;58.60
49679;DHT22;35570;48.218;16.326;2023-06-22T13:17:56;35.00;60.60
49679;DHT22;35570;48.218;16.326;2023-06-22T13:20:22;35.40;58.00
49679;DHT22;35570;48.218;16.326;2023-06-22T13:22:47;35.80;58.20
49679;DHT22;35570;48.218;16.326;2023-06-22T13:25:13;35.90;52.50
49679;DHT22;35570;48.218;16.326;2023-06-22T13:27:41;35.90;55.00
49679;DHT22;35570;48.218;16.326;2023-06-22T13:30:07;36.20;56.60
49679;DHT22;35570;48.218;16.326;2023-06-22T13:32:33;36.80;54.40
49679;DHT22;35570;48.218;16.326;2023-06-22T13:34:59;37.20;50.00
49679;DHT22;35570;48.218;16.326;2023-06-22T13:37:25;37.50;51.70
49679;DHT22;35570;48.218;16.326;2023-06-22T13:39:51;37.70;51.30
49679;DHT22;35570;48.218;16.326;2023-06-22T13:42:17;38.20;49.60
49679;DHT22;35570;48.218;16.326;2023-06-22T13:44:42;38.50;49.20
49679;DHT22;35570;48.218;16.326;2023-06-22T13:47:08;38.70;50.70
49679;DHT22;35570;48.218;16.326;2023-06-22T13:49:34;39.10;50.40
49679;DHT22;35570;48.218;16.326;2023-06-22T13:52:00;39.50;50.00
49679;DHT22;35570;48.218;16.326;2023-06-22T13:54:25;40.00;48.70
49679;DHT22;35570;48.218;16.326;2023-06-22T13:56:51;40.10;47.30
49679;DHT22;35570;48.218;16.326;2023-06-22T13:59:17;40.10;47.30
49679;DHT22;35570;48.218;16.326;2023-06-22T14:01:42;39.80;46.70
49679;DHT22;35570;48.218;16.326;2023-06-22T14:04:09;39.50;47.00
49679;DHT22;35570;48.218;16.326;2023-06-22T14:06:35;39.50;46.50
49679;DHT22;35570;48.218;16.326;2023-06-22T14:09:00;39.70;48.10
49679;DHT22;35570;48.218;16.326;2023-06-22T14:11:27;39.90;47.60
49679;DHT22;35570;48.218;16.326;2023-06-22T14:13:53;39.80;47.70
49679;DHT22;35570;48.218;16.326;2023-06-22T14:16:19;39.60;47.70
49679;DHT22;35570;48.218;16.326;2023-06-22T14:18:45;39.30;47.00
49679;DHT22;35570;48.218;16.326;2023-06-22T14:21:10;38.70;46.70
49679;DHT22;35570;48.218;16.326;2023-06-22T14:23:36;38.10;48.70
49679;DHT22;35570;48.218;16.326;2023-06-22T14:26:03;37.80;49.20
49679;DHT22;35570;48.218;16.326;2023-06-22T14:28:28;37.40;49.70
49679;DHT22;35570;48.218;16.326;2023-06-22T14:30:54;37.20;50.60
49679;DHT22;35570;48.218;16.326;2023-06-22T14:33:20;37.00;50.60
49679;DHT22;35570;48.218;16.326;2023-06-22T14:35:45;36.70;50.90
49679;DHT22;35570;48.218;16.326;2023-06-22T14:38:11;36.40;51.80
49679;DHT22;35570;48.218;16.326;2023-06-22T14:40:37;36.20;52.40
49679;DHT22;35570;48.218;16.326;2023-06-22T14:43:02;36.10;52.70
49679;DHT22;35570;48.218;16.326;2023-06-22T14:45:28;35.90;53.60
49679;DHT22;35570;48.218;16.326;2023-06-22T14:47:53;35.60;54.80
49679;DHT22;35570;48.218;16.326;2023-06-22T14:50:19;35.30;54.80
49679;DHT22;35570;48.218;16.326;2023-06-22T14:52:45;35.00;54.40
49679;DHT22;35570;48.218;16.326;2023-06-22T14:55:11;34.60;54.50
49679;DHT22;35570;48.218;16.326;2023-06-22T14:57:36;34.20;56.90
49679;DHT22;35570;48.218;16.326;2023-06-22T15:00:02;33.80;57.90
49679;DHT22;35570;48.218;16.326;2023-06-22T15:02:28;33.50;59.30
49679;DHT22;35570;48.218;16.326;2023-06-22T15:04:54;33.30;58.20
49679;DHT22;35570;48.218;16.326;2023-06-22T15:07:19;33.20;59.20
49679;DHT22;35570;48.218;16.326;2023-06-22T15:09:45;33.20;59.70
49679;DHT22;35570;48.218;16.326;2023-06-22T15:12:11;33.10;58.60
49679;DHT22;35570;48.218;16.326;2023-06-22T15:14:41;33.10;58.90
49679;DHT22;35570;48.218;16.326;2023-06-22T15:17:07;33.20;58.90
49679;DHT22;35570;48.218;16.326;2023-06-22T15:19:39;33.20;59.60